Home

PKWA Terminal Aerodrome Forecast (TAF)small logo


TAF provided by NWS Guam
2014/09/01 12:39
TAF PKWA 011131Z 0112/0212 06011KT P6SM VCSH FEW020 SCT060

      



Site Map | Contact Us | Copyright © 2007 Atmospheric Technology Services Company. All rights reserved.